Terminal Aerodrome Forecast
Issued by NWS Duluth, MN

Home | Current Version | Previous Version | Text Only | Print | Product List | Glossary On
Versions: 1 2 3 4 5 6 7 8 9 10 11 12 13 14 15 16 17 18 19 20
000
FTUS43 KDLH 221642 AAA
TAFINL
TAF AMD
KINL 221642Z 2217/2312 15004KT P6SM BKN014 BKN040
      TEMPO 2217/2218 SCT014 BKN040
     FM221800 22005KT P6SM SCT150
     FM221900 26009KT P6SM VCSH BKN050
      TEMPO 2220/2222 6SM TSRA BKN030CB
     FM230300 30005KT P6SM BKN060
     FM230700 00000KT 4SM BR SCT015=

USA.gov is the U.S. government's official web portal to all federal, state and local government web resources and services.